ダーウィン の空港の天気 - METARとTAF

ダーウィン国際空港 ( YPDN / DRW ) - オーストラリア ノーザンテリトリーダーウィン
飛行場実況気象(Metar)
観測時間08/14 07:00 ACST (08/13 21:30 UTC)
風向・風速静穏 0m/s
視程10km以上
天気現象地霧
少しの雲 雲底高度 400m
気温22℃
湿度94%
気圧1013hPa
METARYPDN 132130Z 00000KT 9999 MIFG FEW013 22/21 Q1013 THRESHOLD
過去の天気等 Google飛行場航空写真 Wunderground天気予報

過去48時間のMETAR

飛行場予報(TAF)
発表時間: 8/14 05:44 ACST (8/13 20:14 UTC)
予報対象時間: 14日6時 ACST ~ 15日9時 ACST
風向・風速南東 3m/s
視程10km以上
全天の4割程度の雲 雲底高度 460m
14日9時 ACST から
風向・風速東南東 5m/s
視程10km以上
少しの雲 雲底高度 910m
14日14時 ACST から
風向・風速北北西 5m/s
視程10km以上
少しの雲 雲底高度 1220m
14日21時 ACST から
風向・風速西南西 3m/s
視程10km以上
なし
15日3時 ACST から
風向・風速南南東 3m/s
視程10km以上
全天の4割程度の雲 雲底高度 460m
TAF YPDN 132014Z 1321/1500 14005KT 9999 SCT015
FM140000 11010KT 9999 FEW030
FM140500 33010KT 9999 FEW040
FM141200 24006KT CAVOK
FM141800 15005KT 9999 SCT015